createdAt,value
2018-06-08T00:00:39.931Z,18.17
2018-06-08T00:03:08.801Z,16.40
2018-06-08T00:05:37.650Z,17.37
2018-06-08T00:08:06.492Z,18.87
2018-06-08T00:10:35.341Z,17.80
2018-06-08T00:13:04.189Z,20.65
2018-06-08T00:15:33.091Z,19.12
2018-06-08T00:18:01.931Z,17.67
2018-06-08T00:20:30.767Z,19.00
2018-06-08T00:22:59.620Z,18.15
2018-06-08T00:25:28.463Z,17.23
2018-06-08T00:27:57.305Z,17.08
2018-06-08T00:30:26.149Z,17.15
2018-06-08T00:32:54.990Z,18.37
2018-06-08T00:35:23.848Z,19.30
2018-06-08T00:37:52.696Z,18.12
2018-06-08T00:40:21.541Z,18.15
2018-06-08T00:42:50.405Z,21.33
2018-06-08T00:45:19.250Z,18.87
2018-06-08T00:47:48.098Z,18.40
2018-06-08T00:50:16.941Z,19.33
2018-06-08T00:52:45.786Z,17.98
2018-06-08T00:55:14.641Z,19.20
2018-06-08T00:57:43.477Z,18.45
2018-06-08T01:00:12.332Z,19.15
2018-06-08T01:02:41.170Z,21.65
2018-06-08T01:05:10.017Z,19.55
2018-06-08T01:07:38.851Z,19.40
2018-06-08T01:10:07.693Z,18.73
2018-06-08T01:12:36.539Z,19.87
2018-06-08T01:15:05.387Z,18.40
2018-06-08T01:17:34.225Z,19.27
2018-06-08T01:20:03.076Z,20.30
2018-06-08T01:22:31.988Z,21.02
2018-06-08T01:25:00.784Z,23.65
2018-06-08T01:27:29.641Z,21.25
2018-06-08T01:29:58.487Z,19.92
2018-06-08T01:32:27.330Z,22.42
2018-06-08T01:34:56.175Z,21.45
2018-06-08T01:37:25.028Z,19.83
2018-06-08T01:39:53.875Z,19.50
2018-06-08T01:42:22.714Z,21.77
2018-06-08T01:44:51.556Z,21.42
2018-06-08T01:47:20.413Z,23.25
2018-06-08T01:49:49.255Z,22.70
2018-06-08T01:52:18.094Z,21.42
2018-06-08T01:54:46.947Z,21.10
2018-06-08T01:57:15.797Z,20.48
2018-06-08T01:59:44.655Z,18.67
2018-06-08T02:02:13.510Z,18.37
2018-06-08T02:04:42.348Z,19.50
2018-06-08T02:07:11.193Z,17.92
2018-06-08T02:09:40.042Z,19.37
2018-06-08T02:12:08.889Z,17.10
2018-06-08T02:14:37.728Z,18.70
2018-06-08T02:17:06.569Z,18.30
2018-06-08T02:19:35.413Z,17.80
2018-06-08T02:22:04.268Z,17.00
2018-06-08T02:24:33.088Z,17.83
2018-06-08T02:27:01.947Z,16.50
2018-06-08T02:29:30.789Z,20.70
2018-06-08T02:31:59.635Z,18.45
2018-06-08T02:34:28.486Z,18.10
2018-06-08T02:36:57.354Z,17.05
2018-06-08T02:39:26.201Z,17.90
2018-06-08T02:41:55.047Z,17.37
2018-06-08T02:44:23.896Z,18.25
2018-06-08T02:46:52.750Z,16.85
2018-06-08T02:49:21.588Z,18.85
2018-06-08T02:51:50.443Z,18.12
2018-06-08T02:54:19.291Z,21.55
2018-06-08T02:56:48.127Z,18.48
2018-06-08T02:59:16.984Z,19.48
2018-06-08T03:01:45.838Z,18.83
2018-06-08T03:04:14.683Z,18.75
2018-06-08T03:06:43.535Z,18.40
2018-06-08T03:09:12.374Z,19.80
2018-06-08T03:11:41.212Z,21.15
2018-06-08T03:14:10.065Z,22.25
2018-06-08T03:16:38.902Z,23.48
2018-06-08T03:19:07.740Z,19.98
2018-06-08T03:21:36.593Z,19.98
2018-06-08T03:24:05.436Z,21.08
2018-06-08T03:26:34.293Z,18.67
2018-06-08T03:29:03.136Z,21.50
2018-06-08T03:31:31.985Z,18.60
2018-06-08T03:34:00.823Z,22.50
2018-06-08T03:36:29.667Z,21.52
2018-06-08T03:38:58.509Z,18.58
2018-06-08T03:41:27.353Z,19.10
2018-06-08T03:43:56.195Z,19.52
2018-06-08T03:46:25.045Z,21.30
2018-06-08T03:48:53.896Z,20.08
2018-06-08T03:51:22.733Z,23.15
2018-06-08T03:53:51.575Z,22.48
2018-06-08T03:56:20.407Z,20.85
2018-06-08T03:58:49.252Z,22.75
2018-06-08T04:01:18.103Z,23.33
2018-06-08T04:03:46.956Z,23.20
2018-06-08T04:06:15.800Z,25.33
2018-06-08T04:08:44.636Z,28.05
2018-06-08T04:11:13.490Z,25.65
2018-06-08T04:13:42.340Z,28.00
2018-06-08T04:16:11.191Z,25.77
2018-06-08T04:18:40.264Z,25.08
2018-06-08T04:21:08.890Z,25.37
2018-06-08T04:26:06.586Z,26.60
2018-06-08T04:28:35.430Z,26.58
2018-06-08T04:31:04.281Z,30.15
2018-06-08T04:33:33.129Z,25.42
2018-06-08T04:36:01.981Z,24.55
2018-06-08T04:38:30.840Z,25.95
2018-06-08T04:40:59.696Z,22.08
2018-06-08T04:43:28.538Z,23.77
2018-06-08T04:45:57.382Z,24.27
2018-06-08T04:48:26.232Z,23.58
2018-06-08T04:50:55.080Z,23.02
2018-06-08T04:53:23.935Z,23.55
2018-06-08T04:55:52.777Z,20.05
2018-06-08T04:58:21.618Z,21.33
2018-06-08T05:00:50.483Z,19.85
2018-06-08T05:03:19.324Z,19.80
2018-06-08T05:05:48.167Z,18.77
2018-06-08T05:08:17.013Z,16.67
2018-06-08T05:10:45.856Z,17.42
2018-06-08T05:13:14.700Z,16.85
2018-06-08T05:15:43.549Z,15.45
2018-06-08T05:18:12.386Z,16.98
2018-06-08T05:20:41.227Z,17.67
2018-06-08T05:23:10.064Z,17.98
2018-06-08T05:25:38.908Z,18.30
2018-06-08T05:28:07.758Z,17.30
2018-06-08T05:30:36.595Z,18.90
2018-06-08T05:33:05.448Z,18.85
2018-06-08T05:35:34.296Z,17.00
2018-06-08T05:38:03.135Z,18.17
2018-06-08T05:40:31.987Z,18.62
2018-06-08T05:43:00.828Z,18.12
2018-06-08T05:45:29.680Z,18.15
2018-06-08T05:47:58.527Z,18.08
2018-06-08T05:50:27.371Z,18.02
2018-06-08T05:52:56.233Z,18.40
2018-06-08T05:55:25.072Z,16.62
2018-06-08T05:57:53.940Z,16.50
2018-06-08T06:00:22.791Z,21.50
2018-06-08T06:02:51.649Z,19.10
2018-06-08T06:05:20.506Z,19.30
2018-06-08T06:07:49.342Z,19.62
2018-06-08T06:10:18.196Z,18.67
2018-06-08T06:12:47.051Z,17.62
2018-06-08T06:15:15.897Z,19.98
2018-06-08T06:17:44.755Z,15.93
2018-06-08T06:20:13.615Z,16.92
2018-06-08T06:22:42.461Z,15.98
2018-06-08T06:25:11.322Z,15.85
2018-06-08T06:27:40.165Z,15.52
2018-06-08T06:30:09.009Z,15.60
2018-06-08T06:32:37.872Z,16.05
2018-06-08T06:35:06.733Z,16.75
2018-06-08T06:37:35.589Z,16.37
2018-06-08T06:40:04.465Z,15.45
2018-06-08T06:42:33.279Z,15.88
2018-06-08T06:45:02.122Z,16.30
2018-06-08T06:47:30.965Z,15.07
2018-06-08T06:49:59.827Z,16.02
2018-06-08T06:52:28.677Z,15.32
2018-06-08T06:54:57.525Z,16.62
2018-06-08T06:57:26.366Z,17.40
2018-06-08T06:59:55.221Z,18.17
2018-06-08T07:02:24.069Z,16.90
2018-06-08T07:04:52.920Z,16.65
2018-06-08T07:07:21.755Z,18.55
2018-06-08T07:09:50.604Z,18.80
2018-06-08T07:14:51.798Z,22.35
2018-06-08T07:17:20.651Z,19.23
2018-06-08T07:19:49.488Z,21.60
2018-06-08T07:22:18.361Z,21.10
2018-06-08T07:24:47.214Z,20.73
2018-06-08T07:27:16.051Z,21.87
2018-06-08T07:29:45.643Z,24.12
2018-06-08T07:32:14.486Z,25.70
2018-06-08T07:34:43.332Z,25.52
2018-06-08T07:37:12.196Z,26.55
2018-06-08T07:39:41.074Z,27.13
2018-06-08T07:42:09.913Z,23.85
2018-06-08T07:44:38.760Z,24.75
2018-06-08T07:47:07.596Z,23.60
2018-06-08T07:49:36.445Z,26.23
2018-06-08T07:52:05.291Z,25.37
2018-06-08T07:54:34.147Z,26.10
2018-06-08T07:57:02.995Z,26.17
2018-06-08T07:59:31.837Z,25.10
2018-06-08T08:02:00.688Z,25.65
2018-06-08T08:04:29.534Z,23.83
2018-06-08T08:06:58.379Z,25.05
2018-06-08T08:09:27.212Z,22.70
2018-06-08T08:11:56.065Z,24.35
2018-06-08T08:14:24.908Z,24.17
2018-06-08T08:16:53.749Z,24.02
2018-06-08T08:19:22.632Z,23.98
2018-06-08T08:21:51.458Z,28.60
2018-06-08T08:24:20.307Z,26.15
2018-06-08T08:26:49.159Z,32.35
2018-06-08T08:29:18.028Z,26.77
2018-06-08T08:31:47.937Z,31.12
2018-06-08T08:34:16.847Z,28.55
2018-06-08T08:36:45.635Z,26.95
2018-06-08T08:39:14.481Z,28.08
2018-06-08T08:41:44.075Z,28.27
2018-06-08T08:44:12.940Z,31.33
2018-06-08T08:46:41.794Z,24.45
2018-06-08T08:49:10.640Z,24.50
2018-06-08T08:51:39.520Z,23.55
2018-06-08T08:54:08.336Z,25.70
2018-06-08T08:56:37.923Z,22.40
2018-06-08T08:59:07.348Z,19.45
2018-06-08T09:01:36.931Z,20.35
2018-06-08T09:04:05.798Z,22.25
2018-06-08T09:06:34.646Z,26.15
2018-06-08T09:09:03.728Z,26.50
2018-06-08T09:11:32.408Z,27.00
2018-06-08T09:14:01.200Z,28.00
2018-06-08T09:16:30.796Z,27.23
2018-06-08T09:18:59.657Z,29.52
2018-06-08T09:21:28.511Z,27.13
2018-06-08T09:23:57.368Z,29.00
2018-06-08T09:26:26.955Z,25.08
2018-06-08T09:28:55.809Z,30.13
2018-06-08T09:31:24.650Z,27.50
2018-06-08T09:33:54.231Z,28.85
2018-06-08T09:36:23.068Z,26.70
2018-06-08T09:38:51.922Z,27.25
2018-06-08T09:41:20.783Z,30.05
2018-06-08T09:43:49.628Z,32.50
2018-06-08T09:46:19.248Z,29.67
2018-06-08T09:48:48.075Z,28.85
2018-06-08T09:51:16.923Z,29.77
2018-06-08T09:53:45.778Z,29.85
2018-06-08T09:56:14.616Z,27.75
2018-06-08T09:58:43.463Z,27.58
2018-06-08T10:01:12.301Z,29.17
2018-06-08T10:03:41.145Z,28.92
2018-06-08T10:06:10.744Z,32.55
2018-06-08T10:08:40.180Z,34.17
2018-06-08T10:11:09.053Z,29.42
2018-06-08T10:13:38.635Z,29.42
2018-06-08T10:16:07.507Z,28.17
2018-06-08T10:18:37.164Z,34.00
2018-06-08T10:21:06.005Z,35.90
2018-06-08T10:23:34.860Z,28.83
2018-06-08T10:26:03.697Z,28.35
2018-06-08T10:28:32.542Z,27.33
2018-06-08T10:31:01.381Z,27.98
2018-06-08T10:33:30.248Z,28.80
2018-06-08T10:35:59.083Z,29.63
2018-06-08T10:38:28.680Z,24.75
2018-06-08T10:40:57.791Z,25.02
2018-06-08T10:43:26.637Z,26.17
2018-06-08T10:45:55.494Z,26.48
2018-06-08T10:48:24.348Z,26.65
2018-06-08T10:50:53.936Z,23.83
2018-06-08T10:53:22.768Z,26.60
2018-06-08T10:55:51.633Z,24.65
2018-06-08T10:58:20.470Z,24.60
2018-06-08T11:00:49.310Z,23.80
2018-06-08T11:03:18.164Z,23.38
2018-06-08T11:05:47.009Z,22.67
2018-06-08T11:08:15.862Z,20.00
2018-06-08T11:10:44.717Z,21.02
2018-06-08T11:13:13.560Z,20.02
2018-06-08T11:15:42.419Z,18.27
2018-06-08T11:18:11.289Z,20.83
2018-06-08T11:20:40.129Z,18.73
2018-06-08T11:23:09.234Z,18.92
2018-06-08T11:25:38.127Z,20.62
2018-06-08T11:28:06.974Z,19.83
2018-06-08T11:30:35.813Z,19.33
2018-06-08T11:33:04.772Z,19.42
2018-06-08T11:35:33.518Z,19.95
2018-06-08T11:38:02.352Z,19.62
2018-06-08T11:40:31.259Z,18.58
2018-06-08T11:43:00.076Z,20.60
2018-06-08T11:45:28.922Z,20.08
2018-06-08T11:47:57.760Z,19.45
2018-06-08T11:50:26.603Z,20.27
2018-06-08T11:52:55.449Z,20.80
2018-06-08T11:55:24.303Z,17.50
2018-06-08T11:57:53.161Z,18.58
2018-06-08T12:00:22.028Z,17.50
2018-06-08T12:02:50.857Z,20.12
2018-06-08T12:05:19.735Z,19.37
2018-06-08T12:07:48.581Z,18.77
2018-06-08T12:10:17.432Z,20.52
2018-06-08T12:12:46.282Z,19.20
2018-06-08T12:15:15.130Z,18.98
2018-06-08T12:17:43.995Z,18.87
2018-06-08T12:20:12.848Z,19.20
2018-06-08T12:22:41.698Z,18.62
2018-06-08T12:25:10.553Z,18.75
2018-06-08T12:27:39.418Z,20.95
2018-06-08T12:30:08.239Z,18.92
2018-06-08T12:32:37.084Z,20.42
2018-06-08T12:35:05.926Z,18.23
2018-06-08T12:37:34.765Z,20.23
2018-06-08T12:40:03.615Z,17.95
2018-06-08T12:42:32.478Z,18.17
2018-06-08T12:45:01.306Z,17.92
2018-06-08T12:47:30.154Z,19.33
2018-06-08T12:49:58.993Z,19.95
2018-06-08T12:52:27.835Z,21.23
2018-06-08T12:54:56.671Z,19.75
2018-06-08T12:57:25.516Z,17.75
2018-06-08T12:59:54.363Z,17.75
2018-06-08T13:02:23.371Z,16.95
2018-06-08T13:04:52.177Z,17.05
2018-06-08T13:07:21.035Z,16.12
2018-06-08T13:09:49.885Z,18.05
2018-06-08T13:12:18.736Z,16.52
2018-06-08T13:14:48.160Z,16.58
2018-06-08T13:17:17.016Z,17.48
2018-06-08T13:19:45.871Z,20.27
2018-06-08T13:22:14.713Z,18.00
2018-06-08T13:24:44.289Z,17.98
2018-06-08T13:27:13.138Z,20.25
2018-06-08T13:29:41.974Z,16.40
2018-06-08T13:32:11.576Z,16.80
2018-06-08T13:34:40.434Z,17.95
2018-06-08T13:37:09.283Z,17.73
2018-06-08T13:39:38.147Z,18.95
2018-06-08T13:42:06.970Z,17.60
2018-06-08T13:44:35.833Z,16.23
2018-06-08T13:47:04.686Z,15.10
2018-06-08T13:49:33.544Z,16.13
2018-06-08T13:52:02.385Z,16.67
2018-06-08T13:54:31.223Z,16.42
2018-06-08T13:57:00.061Z,14.55
2018-06-08T13:59:28.898Z,14.55
2018-06-08T14:01:57.949Z,13.55
2018-06-08T14:04:26.601Z,13.57
2018-06-08T14:06:55.438Z,12.80
2018-06-08T14:09:24.271Z,12.30
2018-06-08T14:11:53.156Z,11.73
2018-06-08T14:14:21.950Z,13.30
2018-06-08T14:16:50.791Z,15.10
2018-06-08T14:19:19.634Z,14.13
2018-06-08T14:21:48.470Z,15.52
2018-06-08T14:24:17.319Z,12.43
2018-06-08T14:26:46.176Z,15.27
2018-06-08T14:29:15.003Z,14.90
2018-06-08T14:31:43.836Z,13.05
2018-06-08T14:34:12.679Z,13.32
2018-06-08T14:36:41.522Z,14.05
2018-06-08T14:39:10.379Z,13.00
2018-06-08T14:41:39.219Z,13.18
2018-06-08T14:44:08.052Z,11.82
2018-06-08T14:46:36.889Z,13.70
2018-06-08T14:49:05.731Z,12.90
2018-06-08T14:51:34.571Z,11.90
2018-06-08T14:54:03.415Z,12.85
2018-06-08T14:56:32.330Z,12.05
2018-06-08T14:59:01.172Z,11.55
2018-06-08T15:01:30.011Z,12.18
2018-06-08T15:03:58.845Z,11.73
2018-06-08T15:06:27.688Z,13.73
2018-06-08T15:08:56.522Z,16.17
2018-06-08T15:11:25.367Z,15.33
2018-06-08T15:13:54.204Z,11.93
2018-06-08T15:16:23.040Z,12.27
2018-06-08T15:18:51.875Z,10.95
2018-06-08T15:21:20.726Z,11.48
2018-06-08T15:23:49.557Z,13.75
2018-06-08T15:26:18.399Z,13.38
2018-06-08T15:28:47.240Z,16.30
2018-06-08T15:31:16.085Z,16.57
2018-06-08T15:33:44.931Z,17.15
2018-06-08T15:36:13.780Z,15.25
2018-06-08T15:38:42.627Z,16.23
2018-06-08T15:41:11.473Z,16.45
2018-06-08T15:43:40.393Z,15.07
2018-06-08T15:46:09.231Z,15.20
2018-06-08T15:48:38.071Z,14.90
2018-06-08T15:51:06.911Z,14.57
2018-06-08T15:53:35.765Z,13.38
2018-06-08T15:56:04.590Z,13.27
2018-06-08T15:58:33.441Z,14.52
2018-06-08T16:01:02.891Z,13.05
2018-06-08T16:03:31.746Z,14.40
2018-06-08T16:06:00.604Z,12.88
2018-06-08T16:08:29.480Z,14.70
2018-06-08T16:10:58.280Z,12.52
2018-06-08T16:13:27.132Z,12.95
2018-06-08T16:15:55.968Z,13.98
2018-06-08T16:18:24.814Z,13.70
2018-06-08T16:20:53.643Z,12.82
2018-06-08T16:23:22.480Z,13.15
2018-06-08T16:25:51.326Z,12.10
2018-06-08T16:28:20.169Z,11.48
2018-06-08T16:30:49.138Z,11.93
2018-06-08T16:33:17.980Z,12.60
2018-06-08T16:35:46.822Z,13.62
2018-06-08T16:38:15.687Z,12.35
2018-06-08T16:40:44.538Z,12.43
2018-06-08T16:43:13.409Z,12.02
2018-06-08T16:45:42.270Z,10.48
2018-06-08T16:48:11.128Z,11.00
2018-06-08T16:50:39.965Z,12.40
2018-06-08T16:53:08.815Z,10.15
2018-06-08T16:55:37.657Z,9.82
2018-06-08T16:58:06.550Z,10.32
2018-06-08T17:00:35.352Z,10.15
2018-06-08T17:03:04.194Z,10.15
2018-06-08T17:05:33.034Z,10.02
2018-06-08T17:08:01.885Z,10.33
2018-06-08T17:10:30.720Z,9.98
2018-06-08T17:12:59.562Z,10.43
2018-06-08T17:15:28.407Z,10.40
2018-06-08T17:17:57.316Z,9.68
2018-06-08T17:20:26.120Z,9.98
2018-06-08T17:22:54.975Z,10.00
2018-06-08T17:25:23.817Z,9.70
2018-06-08T17:27:52.656Z,9.38
2018-06-08T17:30:21.499Z,9.70
2018-06-08T17:32:50.338Z,9.90
2018-06-08T17:35:19.161Z,10.13
2018-06-08T17:37:47.988Z,9.93
2018-06-08T17:40:16.830Z,10.15
2018-06-08T17:42:45.671Z,11.15
2018-06-08T17:45:14.530Z,11.23
2018-06-08T17:47:43.366Z,11.27
2018-06-08T17:50:12.208Z,11.60
2018-06-08T17:52:41.038Z,12.25
2018-06-08T17:55:09.883Z,11.80
2018-06-08T17:57:38.723Z,11.75
2018-06-08T18:00:07.568Z,11.75
2018-06-08T18:02:36.402Z,13.10
2018-06-08T18:05:05.247Z,11.73
2018-06-08T18:07:34.083Z,12.63
2018-06-08T18:10:02.927Z,12.63
2018-06-08T18:12:31.764Z,13.70
2018-06-08T18:15:00.621Z,15.38
2018-06-08T18:17:29.459Z,16.05
2018-06-08T18:19:58.297Z,16.08
2018-06-08T18:22:27.151Z,16.17
2018-06-08T18:24:55.972Z,16.08
2018-06-08T18:27:24.821Z,17.52
2018-06-08T18:29:54.409Z,16.12
2018-06-08T18:32:23.264Z,17.70
2018-06-08T18:34:52.099Z,18.27
2018-06-08T18:37:21.695Z,18.37
2018-06-08T18:39:50.603Z,19.87
2018-06-08T18:42:19.377Z,17.90
2018-06-08T18:44:48.227Z,17.73
2018-06-08T18:47:17.068Z,17.33
2018-06-08T18:49:46.674Z,16.27
2018-06-08T18:52:16.254Z,19.33
2018-06-08T18:54:45.104Z,19.40
2018-06-08T18:57:13.961Z,18.08
2018-06-08T18:59:42.810Z,17.98
2018-06-08T19:02:11.654Z,19.15
2018-06-08T19:04:40.514Z,18.20
2018-06-08T19:07:09.376Z,17.65
2018-06-08T19:09:38.212Z,19.33
2018-06-08T19:12:07.080Z,17.77
2018-06-08T19:14:35.911Z,18.35
2018-06-08T19:17:04.754Z,16.60
2018-06-08T19:19:33.604Z,16.05
2018-06-08T19:22:02.453Z,17.23
2018-06-08T19:24:32.048Z,15.82
2018-06-08T19:27:00.902Z,17.12
2018-06-08T19:29:29.747Z,16.40
2018-06-08T19:31:58.595Z,16.05
2018-06-08T19:34:27.439Z,15.23
2018-06-08T19:36:56.311Z,13.60
2018-06-08T19:39:25.898Z,12.93
2018-06-08T19:41:54.759Z,12.63
2018-06-08T19:44:23.631Z,12.50
2018-06-08T19:46:52.474Z,11.63
2018-06-08T19:49:22.079Z,11.32
2018-06-08T19:51:50.928Z,10.57
2018-06-08T19:54:19.764Z,12.10
2018-06-08T19:56:49.362Z,11.82
2018-06-08T19:59:18.939Z,11.35
2018-06-08T20:01:47.782Z,13.30
2018-06-08T20:04:16.669Z,12.80
2018-06-08T20:06:46.247Z,12.43
2018-06-08T20:09:15.110Z,12.88
2018-06-08T20:11:43.952Z,13.30
2018-06-08T20:14:13.531Z,13.45
2018-06-08T20:16:42.383Z,11.95
2018-06-08T20:19:11.252Z,12.95
2018-06-08T20:21:40.110Z,12.80
2018-06-08T20:24:09.721Z,12.73
2018-06-08T20:26:39.316Z,14.75
2018-06-08T20:29:08.161Z,16.17
2018-06-08T20:31:37.000Z,15.20
2018-06-08T20:34:06.602Z,14.63
2018-06-08T20:36:35.454Z,16.33
2018-06-08T20:39:04.317Z,16.30
2018-06-08T20:41:33.408Z,15.52
2018-06-08T20:44:02.039Z,16.20
2018-06-08T20:46:30.891Z,17.17
2018-06-08T20:48:59.734Z,17.92
2018-06-08T20:51:28.592Z,19.45
2018-06-08T20:53:57.432Z,21.75
2018-06-08T20:56:27.074Z,20.40
2018-06-08T20:58:55.869Z,20.55
2018-06-08T21:01:24.721Z,20.10
2018-06-08T21:03:53.556Z,20.52
2018-06-08T21:06:22.524Z,19.20
2018-06-08T21:08:51.365Z,19.10
2018-06-08T21:11:20.206Z,18.10
2018-06-08T21:13:49.058Z,18.58
2018-06-08T21:16:17.897Z,22.62
2018-06-08T21:18:46.745Z,21.33
2018-06-08T21:21:15.592Z,19.42
2018-06-08T21:23:44.424Z,21.98
2018-06-08T21:26:13.277Z,19.12
2018-06-08T21:28:42.108Z,19.85
2018-06-08T21:31:10.946Z,20.88
2018-06-08T21:33:39.782Z,19.42
2018-06-08T21:36:08.625Z,19.25
2018-06-08T21:38:37.470Z,21.12
2018-06-08T21:41:06.362Z,19.75
2018-06-08T21:43:35.214Z,20.98
2018-06-08T21:46:04.064Z,19.95
2018-06-08T21:48:32.911Z,18.10
2018-06-08T21:51:01.769Z,19.65
2018-06-08T21:53:30.604Z,21.67
2018-06-08T21:55:59.503Z,20.35
2018-06-08T21:58:28.343Z,19.40
2018-06-08T22:00:57.199Z,20.17
2018-06-08T22:03:26.052Z,18.23
2018-06-08T22:05:54.900Z,19.00
2018-06-08T22:08:23.760Z,18.80
2018-06-08T22:10:52.625Z,17.80
2018-06-08T22:13:21.475Z,19.23
2018-06-08T22:15:50.310Z,19.27
2018-06-08T22:18:19.158Z,17.73
2018-06-08T22:20:48.013Z,18.17
2018-06-08T22:23:16.863Z,18.40
2018-06-08T22:25:45.709Z,19.62
2018-06-08T22:28:14.544Z,18.08
2018-06-08T22:30:43.395Z,17.95
2018-06-08T22:33:12.240Z,18.05
2018-06-08T22:35:41.077Z,18.92
2018-06-08T22:38:09.927Z,18.73
2018-06-08T22:40:38.779Z,18.10
2018-06-08T22:43:07.632Z,17.20
2018-06-08T22:45:36.480Z,20.12
2018-06-08T22:48:05.326Z,17.17
2018-06-08T22:50:34.183Z,17.17
2018-06-08T22:53:03.027Z,18.73
2018-06-08T22:55:31.864Z,18.55
2018-06-08T22:58:00.704Z,18.25
2018-06-08T23:00:29.564Z,16.77
2018-06-08T23:02:58.413Z,16.10
2018-06-08T23:05:27.253Z,16.98
2018-06-08T23:07:56.105Z,14.87
2018-06-08T23:10:25.049Z,18.62
2018-06-08T23:12:53.791Z,15.00
2018-06-08T23:15:22.622Z,15.60
2018-06-08T23:17:51.455Z,16.85
2018-06-08T23:20:20.300Z,16.90
2018-06-08T23:22:49.155Z,17.75
2018-06-08T23:25:17.999Z,21.40
2018-06-08T23:27:46.853Z,20.25
2018-06-08T23:30:15.703Z,19.40
2018-06-08T23:32:44.557Z,23.17
2018-06-08T23:35:13.391Z,21.65
2018-06-08T23:37:42.244Z,22.67
2018-06-08T23:40:11.066Z,22.05
2018-06-08T23:42:39.906Z,23.85
2018-06-08T23:45:08.742Z,25.52
2018-06-08T23:47:37.580Z,26.83
2018-06-08T23:50:06.415Z,28.95
2018-06-08T23:52:35.243Z,27.55
2018-06-08T23:55:04.084Z,28.83
2018-06-08T23:57:32.925Z,32.95
